Terminal Aerodrome Forecast
Issued by NWS Charleston, WV

Current Version | Previous Version | Text Only | Print | Product List | Glossary Off
Versions: 1 2 3 4 5 6 7 8 9 10 11 12 13 14 15 16 17 18 19 20 21 22 23 24 25 26 27

265
FTUS41 KRLX 262333
TAFEKN
TAF
KEKN 262333Z 2700/2724 25005KT P6SM OVC020
     FM270400 28004KT 1SM BR BKN003
     FM270600 VRB03KT 1/4SM FG BKN001
     FM271300 22004KT 1 1/2SM BR FEW001
     FM271500 24005KT P6SM SKC=

USA.gov is the U.S. government's official web portal to all federal, state and local government web resources and services.